sensor_id;sensor_type;location;lat;lon;timestamp;temperature;humidity
27016;DHT22;14557;0.000;0.000;2024-03-08T00:02:00;22.20;57.00
27016;DHT22;14557;0.000;0.000;2024-03-08T00:04:25;22.20;57.00
27016;DHT22;14557;0.000;0.000;2024-03-08T00:06:51;22.20;57.00
27016;DHT22;14557;0.000;0.000;2024-03-08T00:09:16;22.10;56.90
27016;DHT22;14557;0.000;0.000;2024-03-08T00:11:42;22.10;56.90
27016;DHT22;14557;0.000;0.000;2024-03-08T00:14:07;22.10;56.80
27016;DHT22;14557;0.000;0.000;2024-03-08T00:16:33;22.10;56.80
27016;DHT22;14557;0.000;0.000;2024-03-08T00:19:00;22.00;56.80
27016;DHT22;14557;0.000;0.000;2024-03-08T00:21:26;22.10;56.90
27016;DHT22;14557;0.000;0.000;2024-03-08T00:23:54;22.10;56.80
27016;DHT22;14557;0.000;0.000;2024-03-08T00:26:20;22.00;56.80
27016;DHT22;14557;0.000;0.000;2024-03-08T00:28:48;22.00;56.80
27016;DHT22;14557;0.000;0.000;2024-03-08T00:31:14;22.00;56.80
27016;DHT22;14557;0.000;0.000;2024-03-08T00:33:41;21.90;56.70
27016;DHT22;14557;0.000;0.000;2024-03-08T00:36:06;21.90;56.70
27016;DHT22;14557;0.000;0.000;2024-03-08T00:38:33;21.90;56.60
27016;DHT22;14557;0.000;0.000;2024-03-08T00:40:59;21.90;56.70
27016;DHT22;14557;0.000;0.000;2024-03-08T00:43:25;21.90;56.60
27016;DHT22;14557;0.000;0.000;2024-03-08T00:45:51;21.90;57.20
27016;DHT22;14557;0.000;0.000;2024-03-08T00:48:16;21.90;56.60
27016;DHT22;14557;0.000;0.000;2024-03-08T00:50:42;21.80;56.50
27016;DHT22;14557;0.000;0.000;2024-03-08T00:53:11;21.80;56.50
27016;DHT22;14557;0.000;0.000;2024-03-08T00:55:37;21.80;56.40
27016;DHT22;14557;0.000;0.000;2024-03-08T00:58:03;21.80;56.60
27016;DHT22;14557;0.000;0.000;2024-03-08T01:00:29;21.80;56.50
27016;DHT22;14557;0.000;0.000;2024-03-08T01:02:54;21.70;56.40
27016;DHT22;14557;0.000;0.000;2024-03-08T01:05:21;21.70;56.50
27016;DHT22;14557;0.000;0.000;2024-03-08T01:07:46;21.70;56.50
27016;DHT22;14557;0.000;0.000;2024-03-08T01:10:12;21.70;56.50
27016;DHT22;14557;0.000;0.000;2024-03-08T01:12:38;21.70;56.40
27016;DHT22;14557;0.000;0.000;2024-03-08T01:15:04;21.60;56.40
27016;DHT22;14557;0.000;0.000;2024-03-08T01:17:30;21.60;56.40
27016;DHT22;14557;0.000;0.000;2024-03-08T01:19:56;21.60;56.40
27016;DHT22;14557;0.000;0.000;2024-03-08T01:22:22;21.60;56.30
27016;DHT22;14557;0.000;0.000;2024-03-08T01:24:48;21.60;56.30
27016;DHT22;14557;0.000;0.000;2024-03-08T01:27:14;21.60;56.40
27016;DHT22;14557;0.000;0.000;2024-03-08T01:29:40;21.50;56.30
27016;DHT22;14557;0.000;0.000;2024-03-08T01:32:05;21.50;56.40
27016;DHT22;14557;0.000;0.000;2024-03-08T01:34:31;21.50;56.40
27016;DHT22;14557;0.000;0.000;2024-03-08T01:36:58;21.50;56.40
27016;DHT22;14557;0.000;0.000;2024-03-08T01:39:24;21.40;56.40
27016;DHT22;14557;0.000;0.000;2024-03-08T01:41:50;21.40;56.30
27016;DHT22;14557;0.000;0.000;2024-03-08T01:44:16;21.40;56.30
27016;DHT22;14557;0.000;0.000;2024-03-08T01:46:45;21.40;56.20
27016;DHT22;14557;0.000;0.000;2024-03-08T01:49:12;21.40;56.30
27016;DHT22;14557;0.000;0.000;2024-03-08T01:51:38;21.30;56.30
27016;DHT22;14557;0.000;0.000;2024-03-08T01:54:05;21.30;56.20
27016;DHT22;14557;0.000;0.000;2024-03-08T01:56:31;21.30;56.40
27016;DHT22;14557;0.000;0.000;2024-03-08T01:58:57;21.30;56.40
27016;DHT22;14557;0.000;0.000;2024-03-08T02:01:23;21.20;56.90
27016;DHT22;14557;0.000;0.000;2024-03-08T02:03:50;21.20;56.30
27016;DHT22;14557;0.000;0.000;2024-03-08T02:06:16;21.20;56.30
27016;DHT22;14557;0.000;0.000;2024-03-08T02:08:42;21.20;56.20
27016;DHT22;14557;0.000;0.000;2024-03-08T02:11:11;21.10;56.30
27016;DHT22;14557;0.000;0.000;2024-03-08T02:13:37;21.10;56.30
27016;DHT22;14557;0.000;0.000;2024-03-08T02:16:03;21.10;56.20
27016;DHT22;14557;0.000;0.000;2024-03-08T02:18:30;21.10;56.30
27016;DHT22;14557;0.000;0.000;2024-03-08T02:20:56;21.10;56.30
27016;DHT22;14557;0.000;0.000;2024-03-08T02:23:22;21.20;56.30
27016;DHT22;14557;0.000;0.000;2024-03-08T02:25:48;21.00;56.20
27016;DHT22;14557;0.000;0.000;2024-03-08T02:28:14;21.00;56.20
27016;DHT22;14557;0.000;0.000;2024-03-08T02:30:40;21.00;56.30
27016;DHT22;14557;0.000;0.000;2024-03-08T02:33:06;21.00;56.20
27016;DHT22;14557;0.000;0.000;2024-03-08T02:35:35;20.90;56.20
27016;DHT22;14557;0.000;0.000;2024-03-08T02:38:01;20.90;56.30
27016;DHT22;14557;0.000;0.000;2024-03-08T02:40:29;20.90;56.40
27016;DHT22;14557;0.000;0.000;2024-03-08T02:42:54;20.90;56.30
27016;DHT22;14557;0.000;0.000;2024-03-08T02:45:20;20.90;56.30
27016;DHT22;14557;0.000;0.000;2024-03-08T02:47:46;20.90;56.30
27016;DHT22;14557;0.000;0.000;2024-03-08T02:50:11;20.90;56.30
27016;DHT22;14557;0.000;0.000;2024-03-08T02:52:39;20.80;56.30
27016;DHT22;14557;0.000;0.000;2024-03-08T02:55:07;20.80;56.40
27016;DHT22;14557;0.000;0.000;2024-03-08T02:57:33;20.80;56.50
27016;DHT22;14557;0.000;0.000;2024-03-08T02:59:59;20.80;56.40
27016;DHT22;14557;0.000;0.000;2024-03-08T03:02:27;20.80;56.40
27016;DHT22;14557;0.000;0.000;2024-03-08T03:04:53;20.70;56.40
27016;DHT22;14557;0.000;0.000;2024-03-08T03:07:21;20.70;56.30
27016;DHT22;14557;0.000;0.000;2024-03-08T03:09:47;20.70;56.50
27016;DHT22;14557;0.000;0.000;2024-03-08T03:12:12;20.70;56.50
27016;DHT22;14557;0.000;0.000;2024-03-08T03:14:39;20.60;56.40
27016;DHT22;14557;0.000;0.000;2024-03-08T03:17:05;20.70;56.50
27016;DHT22;14557;0.000;0.000;2024-03-08T03:19:30;20.60;56.50
27016;DHT22;14557;0.000;0.000;2024-03-08T03:21:56;20.60;56.40
27016;DHT22;14557;0.000;0.000;2024-03-08T03:24:22;20.60;56.40
27016;DHT22;14557;0.000;0.000;2024-03-08T03:26:48;20.60;56.50
27016;DHT22;14557;0.000;0.000;2024-03-08T03:29:15;20.60;56.50
27016;DHT22;14557;0.000;0.000;2024-03-08T03:31:42;20.50;56.50
27016;DHT22;14557;0.000;0.000;2024-03-08T03:34:08;20.50;56.50
27016;DHT22;14557;0.000;0.000;2024-03-08T03:36:34;20.50;56.50
27016;DHT22;14557;0.000;0.000;2024-03-08T03:39:00;20.50;56.60
27016;DHT22;14557;0.000;0.000;2024-03-08T03:41:41;20.50;56.60
27016;DHT22;14557;0.000;0.000;2024-03-08T03:44:07;20.50;56.70
27016;DHT22;14557;0.000;0.000;2024-03-08T03:46:33;20.40;56.60
27016;DHT22;14557;0.000;0.000;2024-03-08T03:48:59;20.40;56.60
27016;DHT22;14557;0.000;0.000;2024-03-08T03:51:24;20.40;56.60
27016;DHT22;14557;0.000;0.000;2024-03-08T03:53:50;20.40;56.70
27016;DHT22;14557;0.000;0.000;2024-03-08T03:56:17;20.40;56.70
27016;DHT22;14557;0.000;0.000;2024-03-08T03:58:42;20.30;56.70
27016;DHT22;14557;0.000;0.000;2024-03-08T04:01:08;20.20;56.60
27016;DHT22;14557;0.000;0.000;2024-03-08T04:03:35;20.30;56.80
27016;DHT22;14557;0.000;0.000;2024-03-08T04:06:00;20.30;56.80
27016;DHT22;14557;0.000;0.000;2024-03-08T04:08:27;20.30;56.80
27016;DHT22;14557;0.000;0.000;2024-03-08T04:10:52;20.20;56.80
27016;DHT22;14557;0.000;0.000;2024-03-08T04:13:18;20.20;56.70
27016;DHT22;14557;0.000;0.000;2024-03-08T04:15:45;20.20;56.80
27016;DHT22;14557;0.000;0.000;2024-03-08T04:18:13;20.20;56.70
27016;DHT22;14557;0.000;0.000;2024-03-08T04:20:39;20.20;56.80
27016;DHT22;14557;0.000;0.000;2024-03-08T04:23:06;20.20;56.80
27016;DHT22;14557;0.000;0.000;2024-03-08T04:25:31;20.10;56.70
27016;DHT22;14557;0.000;0.000;2024-03-08T04:27:57;20.10;56.80
27016;DHT22;14557;0.000;0.000;2024-03-08T04:30:23;20.10;56.80
27016;DHT22;14557;0.000;0.000;2024-03-08T04:32:49;20.10;56.80
27016;DHT22;14557;0.000;0.000;2024-03-08T04:35:15;20.10;57.40
27016;DHT22;14557;0.000;0.000;2024-03-08T04:37:41;20.10;56.80
27016;DHT22;14557;0.000;0.000;2024-03-08T04:40:06;20.10;56.80
27016;DHT22;14557;0.000;0.000;2024-03-08T04:42:32;20.10;56.80
27016;DHT22;14557;0.000;0.000;2024-03-08T04:44:58;20.00;56.80
27016;DHT22;14557;0.000;0.000;2024-03-08T04:47:24;20.00;57.10
27016;DHT22;14557;0.000;0.000;2024-03-08T04:49:50;20.00;57.10
27016;DHT22;14557;0.000;0.000;2024-03-08T04:52:16;20.00;57.40
27016;DHT22;14557;0.000;0.000;2024-03-08T04:54:41;20.10;57.60
27016;DHT22;14557;0.000;0.000;2024-03-08T04:57:07;20.00;57.60
27016;DHT22;14557;0.000;0.000;2024-03-08T04:59:33;20.00;57.70
27016;DHT22;14557;0.000;0.000;2024-03-08T05:01:58;20.00;57.70
27016;DHT22;14557;0.000;0.000;2024-03-08T05:04:24;20.00;57.80
27016;DHT22;14557;0.000;0.000;2024-03-08T05:06:50;20.00;57.80
27016;DHT22;14557;0.000;0.000;2024-03-08T05:09:16;20.00;57.90
27016;DHT22;14557;0.000;0.000;2024-03-08T05:11:42;20.00;57.90
27016;DHT22;14557;0.000;0.000;2024-03-08T05:14:09;20.00;58.10
27016;DHT22;14557;0.000;0.000;2024-03-08T05:16:35;20.00;58.10
27016;DHT22;14557;0.000;0.000;2024-03-08T05:19:01;20.00;58.20
27016;DHT22;14557;0.000;0.000;2024-03-08T05:21:27;20.00;58.20
27016;DHT22;14557;0.000;0.000;2024-03-08T05:23:54;20.00;58.20
27016;DHT22;14557;0.000;0.000;2024-03-08T05:26:19;19.90;58.10
27016;DHT22;14557;0.000;0.000;2024-03-08T05:28:45;20.00;58.20
27016;DHT22;14557;0.000;0.000;2024-03-08T05:31:18;19.90;58.10
27016;DHT22;14557;0.000;0.000;2024-03-08T05:33:43;19.90;58.10
27016;DHT22;14557;0.000;0.000;2024-03-08T05:36:09;19.90;58.10
27016;DHT22;14557;0.000;0.000;2024-03-08T05:38:34;19.90;58.60
27016;DHT22;14557;0.000;0.000;2024-03-08T05:41:00;19.90;58.10
27016;DHT22;14557;0.000;0.000;2024-03-08T05:43:26;19.90;58.10
27016;DHT22;14557;0.000;0.000;2024-03-08T05:45:52;19.90;58.10
27016;DHT22;14557;0.000;0.000;2024-03-08T05:48:17;19.90;58.10
27016;DHT22;14557;0.000;0.000;2024-03-08T05:50:43;19.90;58.20
27016;DHT22;14557;0.000;0.000;2024-03-08T05:53:09;19.90;58.10
27016;DHT22;14557;0.000;0.000;2024-03-08T05:55:35;19.80;58.10
27016;DHT22;14557;0.000;0.000;2024-03-08T05:58:01;19.80;58.10
27016;DHT22;14557;0.000;0.000;2024-03-08T06:00:26;19.80;58.10
27016;DHT22;14557;0.000;0.000;2024-03-08T06:02:52;19.80;58.10
27016;DHT22;14557;0.000;0.000;2024-03-08T06:05:18;19.80;58.00
27016;DHT22;14557;0.000;0.000;2024-03-08T06:07:43;19.80;58.00
27016;DHT22;14557;0.000;0.000;2024-03-08T06:10:09;19.80;58.10
27016;DHT22;14557;0.000;0.000;2024-03-08T06:12:36;19.80;58.10
27016;DHT22;14557;0.000;0.000;2024-03-08T06:15:06;19.80;58.10
27016;DHT22;14557;0.000;0.000;2024-03-08T06:17:31;19.80;58.10
27016;DHT22;14557;0.000;0.000;2024-03-08T06:19:57;19.80;58.10
27016;DHT22;14557;0.000;0.000;2024-03-08T06:22:23;19.80;58.10
27016;DHT22;14557;0.000;0.000;2024-03-08T06:24:48;19.80;58.10
27016;DHT22;14557;0.000;0.000;2024-03-08T06:27:14;19.80;58.10
27016;DHT22;14557;0.000;0.000;2024-03-08T06:29:39;19.70;58.10
27016;DHT22;14557;0.000;0.000;2024-03-08T06:32:05;19.70;58.10
27016;DHT22;14557;0.000;0.000;2024-03-08T06:34:32;19.70;58.10
27016;DHT22;14557;0.000;0.000;2024-03-08T06:37:00;19.70;58.20
27016;DHT22;14557;0.000;0.000;2024-03-08T06:39:27;19.70;58.20
27016;DHT22;14557;0.000;0.000;2024-03-08T06:41:54;19.70;58.20
27016;DHT22;14557;0.000;0.000;2024-03-08T06:44:19;19.70;58.20
27016;DHT22;14557;0.000;0.000;2024-03-08T06:46:47;19.60;58.20
27016;DHT22;14557;0.000;0.000;2024-03-08T06:49:13;19.70;58.20
27016;DHT22;14557;0.000;0.000;2024-03-08T06:51:40;19.60;58.20
27016;DHT22;14557;0.000;0.000;2024-03-08T06:54:06;19.60;58.20
27016;DHT22;14557;0.000;0.000;2024-03-08T06:56:37;19.60;58.30
27016;DHT22;14557;0.000;0.000;2024-03-08T06:59:03;19.60;58.20
27016;DHT22;14557;0.000;0.000;2024-03-08T07:01:29;19.60;58.30
27016;DHT22;14557;0.000;0.000;2024-03-08T07:03:57;19.60;58.30
27016;DHT22;14557;0.000;0.000;2024-03-08T07:06:23;19.60;58.30
27016;DHT22;14557;0.000;0.000;2024-03-08T07:08:49;19.60;58.30
27016;DHT22;14557;0.000;0.000;2024-03-08T07:11:14;19.60;58.30
27016;DHT22;14557;0.000;0.000;2024-03-08T07:13:46;19.60;58.30
27016;DHT22;14557;0.000;0.000;2024-03-08T07:16:12;19.60;58.30
27016;DHT22;14557;0.000;0.000;2024-03-08T07:18:38;19.60;58.40
27016;DHT22;14557;0.000;0.000;2024-03-08T07:21:11;19.60;58.30
27016;DHT22;14557;0.000;0.000;2024-03-08T07:23:37;19.60;58.40
27016;DHT22;14557;0.000;0.000;2024-03-08T07:26:15;19.50;58.30
27016;DHT22;14557;0.000;0.000;2024-03-08T07:28:41;19.50;58.30
27016;DHT22;14557;0.000;0.000;2024-03-08T07:31:06;19.50;58.30
27016;DHT22;14557;0.000;0.000;2024-03-08T07:33:38;19.50;58.30
27016;DHT22;14557;0.000;0.000;2024-03-08T07:36:07;19.50;58.30
27016;DHT22;14557;0.000;0.000;2024-03-08T07:38:33;19.50;58.30
27016;DHT22;14557;0.000;0.000;2024-03-08T07:40:59;19.50;58.30
27016;DHT22;14557;0.000;0.000;2024-03-08T07:43:25;19.40;58.30
27016;DHT22;14557;0.000;0.000;2024-03-08T07:45:51;19.50;58.30
27016;DHT22;14557;0.000;0.000;2024-03-08T07:48:18;19.40;58.40
27016;DHT22;14557;0.000;0.000;2024-03-08T07:50:43;19.40;58.60
27016;DHT22;14557;0.000;0.000;2024-03-08T07:53:09;19.50;62.50
27016;DHT22;14557;0.000;0.000;2024-03-08T07:55:35;19.50;64.10
27016;DHT22;14557;0.000;0.000;2024-03-08T07:58:01;19.50;63.60
27016;DHT22;14557;0.000;0.000;2024-03-08T08:00:28;19.50;65.40
27016;DHT22;14557;0.000;0.000;2024-03-08T08:02:55;19.50;67.90
27016;DHT22;14557;0.000;0.000;2024-03-08T08:05:21;19.50;65.70
27016;DHT22;14557;0.000;0.000;2024-03-08T08:07:47;19.50;64.60
27016;DHT22;14557;0.000;0.000;2024-03-08T08:10:12;19.50;64.10
27016;DHT22;14557;0.000;0.000;2024-03-08T08:12:47;19.50;63.80
27016;DHT22;14557;0.000;0.000;2024-03-08T08:15:12;19.50;62.50
27016;DHT22;14557;0.000;0.000;2024-03-08T08:17:38;19.50;62.20
27016;DHT22;14557;0.000;0.000;2024-03-08T08:20:04;19.50;63.10
27016;DHT22;14557;0.000;0.000;2024-03-08T08:22:31;19.50;64.70
27016;DHT22;14557;0.000;0.000;2024-03-08T08:24:57;19.60;63.90
27016;DHT22;14557;0.000;0.000;2024-03-08T08:27:23;19.60;62.60
27016;DHT22;14557;0.000;0.000;2024-03-08T08:29:51;19.70;62.00
27016;DHT22;14557;0.000;0.000;2024-03-08T08:32:17;19.70;61.70
27016;DHT22;14557;0.000;0.000;2024-03-08T08:34:44;19.70;64.30
27016;DHT22;14557;0.000;0.000;2024-03-08T08:37:10;19.80;66.00
27016;DHT22;14557;0.000;0.000;2024-03-08T08:39:35;19.90;68.30
27016;DHT22;14557;0.000;0.000;2024-03-08T08:42:03;20.00;65.40
27016;DHT22;14557;0.000;0.000;2024-03-08T08:44:28;19.90;63.40
27016;DHT22;14557;0.000;0.000;2024-03-08T08:46:54;19.90;63.40
27016;DHT22;14557;0.000;0.000;2024-03-08T08:49:20;19.90;62.50
27016;DHT22;14557;0.000;0.000;2024-03-08T08:51:52;19.90;61.60
27016;DHT22;14557;0.000;0.000;2024-03-08T08:54:18;19.80;61.10
27016;DHT22;14557;0.000;0.000;2024-03-08T08:56:44;19.80;60.70
27016;DHT22;14557;0.000;0.000;2024-03-08T08:59:10;19.80;60.30
27016;DHT22;14557;0.000;0.000;2024-03-08T09:01:41;19.80;59.80
27016;DHT22;14557;0.000;0.000;2024-03-08T09:04:07;19.80;59.50
27016;DHT22;14557;0.000;0.000;2024-03-08T09:06:33;19.80;59.20
27016;DHT22;14557;0.000;0.000;2024-03-08T09:08:59;19.80;59.20
27016;DHT22;14557;0.000;0.000;2024-03-08T09:11:25;19.80;59.10
27016;DHT22;14557;0.000;0.000;2024-03-08T09:13:50;19.80;58.90
27016;DHT22;14557;0.000;0.000;2024-03-08T09:16:16;19.80;58.90
27016;DHT22;14557;0.000;0.000;2024-03-08T09:18:42;19.70;58.70
27016;DHT22;14557;0.000;0.000;2024-03-08T09:21:07;19.70;58.60
27016;DHT22;14557;0.000;0.000;2024-03-08T09:23:38;19.70;58.60
27016;DHT22;14557;0.000;0.000;2024-03-08T09:26:03;19.70;59.10
27016;DHT22;14557;0.000;0.000;2024-03-08T09:28:29;19.70;59.00
27016;DHT22;14557;0.000;0.000;2024-03-08T09:30:55;19.70;59.20
27016;DHT22;14557;0.000;0.000;2024-03-08T09:33:21;19.70;59.10
27016;DHT22;14557;0.000;0.000;2024-03-08T09:35:47;19.70;59.50
27016;DHT22;14557;0.000;0.000;2024-03-08T09:38:13;19.70;59.20
27016;DHT22;14557;0.000;0.000;2024-03-08T09:40:42;19.70;59.10
27016;DHT22;14557;0.000;0.000;2024-03-08T09:43:09;19.70;59.00
27016;DHT22;14557;0.000;0.000;2024-03-08T09:45:37;19.70;58.90
27016;DHT22;14557;0.000;0.000;2024-03-08T09:48:08;19.60;59.60
27016;DHT22;14557;0.000;0.000;2024-03-08T09:50:36;19.70;60.80
27016;DHT22;14557;0.000;0.000;2024-03-08T09:53:02;19.70;59.90
27016;DHT22;14557;0.000;0.000;2024-03-08T09:55:28;19.60;59.80
27016;DHT22;14557;0.000;0.000;2024-03-08T09:57:59;19.70;59.70
27016;DHT22;14557;0.000;0.000;2024-03-08T10:00:44;19.70;59.70
27016;DHT22;14557;0.000;0.000;2024-03-08T10:03:10;19.70;59.10
27016;DHT22;14557;0.000;0.000;2024-03-08T10:05:36;19.70;58.70
27016;DHT22;14557;0.000;0.000;2024-03-08T10:08:01;19.70;58.40
27016;DHT22;14557;0.000;0.000;2024-03-08T10:10:27;19.70;58.80
27016;DHT22;14557;0.000;0.000;2024-03-08T10:12:53;19.70;58.70
27016;DHT22;14557;0.000;0.000;2024-03-08T10:15:18;19.70;59.20
27016;DHT22;14557;0.000;0.000;2024-03-08T10:17:45;19.70;58.80
27016;DHT22;14557;0.000;0.000;2024-03-08T10:20:17;19.70;58.70
27016;DHT22;14557;0.000;0.000;2024-03-08T10:22:43;19.70;60.20
27016;DHT22;14557;0.000;0.000;2024-03-08T10:25:12;19.60;59.90
27016;DHT22;14557;0.000;0.000;2024-03-08T10:27:41;19.70;60.20
27016;DHT22;14557;0.000;0.000;2024-03-08T10:30:16;19.70;59.30
27016;DHT22;14557;0.000;0.000;2024-03-08T10:32:45;19.70;59.30
27016;DHT22;14557;0.000;0.000;2024-03-08T10:35:11;19.70;58.90
27016;DHT22;14557;0.000;0.000;2024-03-08T10:37:47;19.60;58.80
27016;DHT22;14557;0.000;0.000;2024-03-08T10:40:15;19.60;58.70
27016;DHT22;14557;0.000;0.000;2024-03-08T10:47:48;19.60;58.60
27016;DHT22;14557;0.000;0.000;2024-03-08T10:50:20;19.60;58.50
27016;DHT22;14557;0.000;0.000;2024-03-08T10:52:50;19.60;58.40
27016;DHT22;14557;0.000;0.000;2024-03-08T10:55:17;19.60;58.20
27016;DHT22;14557;0.000;0.000;2024-03-08T10:57:42;19.60;58.10
27016;DHT22;14557;0.000;0.000;2024-03-08T11:00:08;19.70;58.20
27016;DHT22;14557;0.000;0.000;2024-03-08T11:02:37;19.60;58.10
27016;DHT22;14557;0.000;0.000;2024-03-08T11:05:09;19.60;58.10
27016;DHT22;14557;0.000;0.000;2024-03-08T11:07:40;19.60;58.10
27016;DHT22;14557;0.000;0.000;2024-03-08T11:10:06;19.60;57.90
27016;DHT22;14557;0.000;0.000;2024-03-08T11:12:36;19.60;57.90
27016;DHT22;14557;0.000;0.000;2024-03-08T11:15:02;19.60;57.90
27016;DHT22;14557;0.000;0.000;2024-03-08T11:20:11;19.60;57.80
27016;DHT22;14557;0.000;0.000;2024-03-08T11:28:09;19.50;57.70
27016;DHT22;14557;0.000;0.000;2024-03-08T11:30:36;19.60;57.70
27016;DHT22;14557;0.000;0.000;2024-03-08T11:33:03;19.60;57.70
27016;DHT22;14557;0.000;0.000;2024-03-08T11:35:29;19.60;57.70
27016;DHT22;14557;0.000;0.000;2024-03-08T11:37:57;19.60;57.70
27016;DHT22;14557;0.000;0.000;2024-03-08T11:40:23;19.50;57.60
27016;DHT22;14557;0.000;0.000;2024-03-08T11:42:49;19.50;58.20
27016;DHT22;14557;0.000;0.000;2024-03-08T11:45:17;19.60;57.70
27016;DHT22;14557;0.000;0.000;2024-03-08T11:47:45;19.60;57.70
27016;DHT22;14557;0.000;0.000;2024-03-08T11:50:12;19.60;57.70
27016;DHT22;14557;0.000;0.000;2024-03-08T11:52:37;19.60;57.70
27016;DHT22;14557;0.000;0.000;2024-03-08T11:55:03;19.60;57.80
27016;DHT22;14557;0.000;0.000;2024-03-08T11:57:30;19.60;57.80
27016;DHT22;14557;0.000;0.000;2024-03-08T11:59:56;19.50;57.80
27016;DHT22;14557;0.000;0.000;2024-03-08T12:02:34;19.50;57.70
27016;DHT22;14557;0.000;0.000;2024-03-08T12:05:07;19.50;57.70
27016;DHT22;14557;0.000;0.000;2024-03-08T12:07:41;19.50;58.10
27016;DHT22;14557;0.000;0.000;2024-03-08T12:10:15;19.50;58.10
27016;DHT22;14557;0.000;0.000;2024-03-08T12:12:47;19.50;58.10
27016;DHT22;14557;0.000;0.000;2024-03-08T12:15:13;19.50;57.90
27016;DHT22;14557;0.000;0.000;2024-03-08T12:17:40;19.60;59.10
27016;DHT22;14557;0.000;0.000;2024-03-08T12:20:11;19.60;58.60
27016;DHT22;14557;0.000;0.000;2024-03-08T12:22:41;19.60;59.70
27016;DHT22;14557;0.000;0.000;2024-03-08T12:25:06;19.70;62.40
27016;DHT22;14557;0.000;0.000;2024-03-08T12:27:36;19.70;61.10
27016;DHT22;14557;0.000;0.000;2024-03-08T12:33:00;19.80;59.80
27016;DHT22;14557;0.000;0.000;2024-03-08T12:35:26;19.80;58.90
27016;DHT22;14557;0.000;0.000;2024-03-08T12:37:53;19.80;58.70
27016;DHT22;14557;0.000;0.000;2024-03-08T12:40:25;19.70;58.60
27016;DHT22;14557;0.000;0.000;2024-03-08T12:42:52;19.80;58.80
27016;DHT22;14557;0.000;0.000;2024-03-08T12:45:17;19.80;60.80
27016;DHT22;14557;0.000;0.000;2024-03-08T12:47:43;19.90;62.10
27016;DHT22;14557;0.000;0.000;2024-03-08T12:50:10;19.90;61.40
27016;DHT22;14557;0.000;0.000;2024-03-08T12:52:35;19.90;62.80
27016;DHT22;14557;0.000;0.000;2024-03-08T12:55:02;19.90;62.20
27016;DHT22;14557;0.000;0.000;2024-03-08T12:57:28;19.90;62.00
27016;DHT22;14557;0.000;0.000;2024-03-08T12:59:53;19.90;60.00
27016;DHT22;14557;0.000;0.000;2024-03-08T13:02:19;19.90;59.50
27016;DHT22;14557;0.000;0.000;2024-03-08T13:04:46;19.90;59.20
27016;DHT22;14557;0.000;0.000;2024-03-08T13:07:21;19.90;59.00
27016;DHT22;14557;0.000;0.000;2024-03-08T13:09:46;19.90;58.40
27016;DHT22;14557;0.000;0.000;2024-03-08T13:12:12;19.90;58.40
27016;DHT22;14557;0.000;0.000;2024-03-08T13:14:40;19.90;58.10
27016;DHT22;14557;0.000;0.000;2024-03-08T13:17:06;19.90;57.90
27016;DHT22;14557;0.000;0.000;2024-03-08T13:19:36;19.90;57.80
27016;DHT22;14557;0.000;0.000;2024-03-08T13:22:01;19.80;57.70
27016;DHT22;14557;0.000;0.000;2024-03-08T13:24:30;19.90;57.50
27016;DHT22;14557;0.000;0.000;2024-03-08T13:26:55;19.80;57.40
27016;DHT22;14557;0.000;0.000;2024-03-08T13:29:21;19.90;57.50
27016;DHT22;14557;0.000;0.000;2024-03-08T13:31:48;19.80;57.30
27016;DHT22;14557;0.000;0.000;2024-03-08T13:34:19;19.80;57.20
27016;DHT22;14557;0.000;0.000;2024-03-08T13:36:53;19.80;57.20
27016;DHT22;14557;0.000;0.000;2024-03-08T13:39:19;19.80;57.20
27016;DHT22;14557;0.000;0.000;2024-03-08T13:41:46;19.80;57.10
27016;DHT22;14557;0.000;0.000;2024-03-08T13:44:11;19.80;57.10
27016;DHT22;14557;0.000;0.000;2024-03-08T13:46:37;19.80;57.30
27016;DHT22;14557;0.000;0.000;2024-03-08T13:49:04;19.80;57.40
27016;DHT22;14557;0.000;0.000;2024-03-08T13:51:35;19.80;59.20
27016;DHT22;14557;0.000;0.000;2024-03-08T13:54:00;19.80;58.70
27016;DHT22;14557;0.000;0.000;2024-03-08T13:56:27;19.70;58.40
27016;DHT22;14557;0.000;0.000;2024-03-08T13:58:52;19.70;58.20
27016;DHT22;14557;0.000;0.000;2024-03-08T14:01:21;19.80;59.50
27016;DHT22;14557;0.000;0.000;2024-03-08T14:03:47;19.80;59.30
27016;DHT22;14557;0.000;0.000;2024-03-08T14:06:12;19.80;66.00
27016;DHT22;14557;0.000;0.000;2024-03-08T14:08:38;19.90;60.00
27016;DHT22;14557;0.000;0.000;2024-03-08T14:11:04;19.90;59.30
27016;DHT22;14557;0.000;0.000;2024-03-08T14:13:40;19.90;59.00
27016;DHT22;14557;0.000;0.000;2024-03-08T14:16:06;19.90;58.60
27016;DHT22;14557;0.000;0.000;2024-03-08T14:18:34;19.90;58.40
27016;DHT22;14557;0.000;0.000;2024-03-08T14:21:00;19.90;58.20
27016;DHT22;14557;0.000;0.000;2024-03-08T14:23:25;19.90;58.10
27016;DHT22;14557;0.000;0.000;2024-03-08T14:25:52;20.00;57.90
27016;DHT22;14557;0.000;0.000;2024-03-08T14:28:18;19.90;57.80
27016;DHT22;14557;0.000;0.000;2024-03-08T14:30:44;19.90;57.60
27016;DHT22;14557;0.000;0.000;2024-03-08T14:33:10;19.90;57.70
27016;DHT22;14557;0.000;0.000;2024-03-08T14:35:35;19.90;58.20
27016;DHT22;14557;0.000;0.000;2024-03-08T14:38:01;19.90;58.10
27016;DHT22;14557;0.000;0.000;2024-03-08T14:40:27;19.90;58.10
27016;DHT22;14557;0.000;0.000;2024-03-08T14:42:53;19.90;57.90
27016;DHT22;14557;0.000;0.000;2024-03-08T14:45:19;19.90;57.80
27016;DHT22;14557;0.000;0.000;2024-03-08T14:47:47;19.90;57.60
27016;DHT22;14557;0.000;0.000;2024-03-08T14:50:20;19.90;57.50
27016;DHT22;14557;0.000;0.000;2024-03-08T14:52:45;19.90;57.50
27016;DHT22;14557;0.000;0.000;2024-03-08T14:55:14;19.90;57.40
27016;DHT22;14557;0.000;0.000;2024-03-08T14:57:43;19.90;57.30
27016;DHT22;14557;0.000;0.000;2024-03-08T15:00:11;19.90;57.20
27016;DHT22;14557;0.000;0.000;2024-03-08T15:02:42;19.90;57.50
27016;DHT22;14557;0.000;0.000;2024-03-08T15:05:08;19.90;57.20
27016;DHT22;14557;0.000;0.000;2024-03-08T15:07:37;19.90;57.00
27016;DHT22;14557;0.000;0.000;2024-03-08T15:10:06;19.90;57.00
27016;DHT22;14557;0.000;0.000;2024-03-08T15:12:36;19.90;57.10
27016;DHT22;14557;0.000;0.000;2024-03-08T15:15:02;20.00;57.50
27016;DHT22;14557;0.000;0.000;2024-03-08T15:17:27;19.90;57.40
27016;DHT22;14557;0.000;0.000;2024-03-08T15:19:53;19.90;57.50
27016;DHT22;14557;0.000;0.000;2024-03-08T15:22:19;19.90;57.40
27016;DHT22;14557;0.000;0.000;2024-03-08T15:24:44;19.90;57.40
27016;DHT22;14557;0.000;0.000;2024-03-08T15:27:10;19.90;57.30
27016;DHT22;14557;0.000;0.000;2024-03-08T15:29:36;19.90;57.40
27016;DHT22;14557;0.000;0.000;2024-03-08T15:32:02;19.90;57.30
27016;DHT22;14557;0.000;0.000;2024-03-08T15:34:28;19.90;57.30
27016;DHT22;14557;0.000;0.000;2024-03-08T15:36:53;19.90;57.20
27016;DHT22;14557;0.000;0.000;2024-03-08T15:39:19;19.90;56.80
27016;DHT22;14557;0.000;0.000;2024-03-08T15:41:49;20.00;56.50
27016;DHT22;14557;0.000;0.000;2024-03-08T15:44:15;19.90;56.40
27016;DHT22;14557;0.000;0.000;2024-03-08T15:46:41;19.90;56.40
27016;DHT22;14557;0.000;0.000;2024-03-08T15:49:09;19.90;55.50
27016;DHT22;14557;0.000;0.000;2024-03-08T15:51:36;19.90;55.20
27016;DHT22;14557;0.000;0.000;2024-03-08T15:54:02;19.90;55.00
27016;DHT22;14557;0.000;0.000;2024-03-08T15:56:30;19.90;55.00
27016;DHT22;14557;0.000;0.000;2024-03-08T15:58:57;19.90;54.90